sensor_id;sensor_type;location;lat;lon;timestamp;temperature;humidity
33255;DHT22;19623;52.482;9.762;2022-12-20T00:01:22;6.70;99.90
33255;DHT22;19623;52.482;9.762;2022-12-20T00:03:49;6.60;99.90
33255;DHT22;19623;52.482;9.762;2022-12-20T00:06:16;6.60;99.90
33255;DHT22;19623;52.482;9.762;2022-12-20T00:08:41;6.60;99.90
33255;DHT22;19623;52.482;9.762;2022-12-20T00:11:08;6.50;99.90
33255;DHT22;19623;52.482;9.762;2022-12-20T00:13:34;6.60;99.90
33255;DHT22;19623;52.482;9.762;2022-12-20T00:16:16;6.50;99.90
33255;DHT22;19623;52.482;9.762;2022-12-20T00:18:42;6.60;99.90
33255;DHT22;19623;52.482;9.762;2022-12-20T00:21:11;6.60;99.90
33255;DHT22;19623;52.482;9.762;2022-12-20T00:23:37;6.60;99.90
33255;DHT22;19623;52.482;9.762;2022-12-20T00:26:08;6.60;99.90
33255;DHT22;19623;52.482;9.762;2022-12-20T00:28:35;6.60;99.90
33255;DHT22;19623;52.482;9.762;2022-12-20T00:31:01;6.70;99.90
33255;DHT22;19623;52.482;9.762;2022-12-20T00:33:27;6.70;99.90
33255;DHT22;19623;52.482;9.762;2022-12-20T00:35:57;6.70;99.90
33255;DHT22;19623;52.482;9.762;2022-12-20T00:38:23;6.70;99.90
33255;DHT22;19623;52.482;9.762;2022-12-20T00:41:10;6.60;99.90
33255;DHT22;19623;52.482;9.762;2022-12-20T00:43:37;6.60;99.90
33255;DHT22;19623;52.482;9.762;2022-12-20T00:46:04;6.50;99.90
33255;DHT22;19623;52.482;9.762;2022-12-20T00:48:31;6.60;99.90
33255;DHT22;19623;52.482;9.762;2022-12-20T00:51:01;6.60;99.90
33255;DHT22;19623;52.482;9.762;2022-12-20T00:53:28;6.60;99.90
33255;DHT22;19623;52.482;9.762;2022-12-20T00:55:54;6.50;99.90
33255;DHT22;19623;52.482;9.762;2022-12-20T00:58:20;6.50;99.90
33255;DHT22;19623;52.482;9.762;2022-12-20T01:00:46;6.40;99.90
33255;DHT22;19623;52.482;9.762;2022-12-20T01:03:12;6.50;99.90
33255;DHT22;19623;52.482;9.762;2022-12-20T01:05:37;6.50;99.90
33255;DHT22;19623;52.482;9.762;2022-12-20T01:08:04;6.40;99.90
33255;DHT22;19623;52.482;9.762;2022-12-20T01:10:30;6.40;99.90
33255;DHT22;19623;52.482;9.762;2022-12-20T01:12:56;6.40;99.90
33255;DHT22;19623;52.482;9.762;2022-12-20T01:15:22;6.50;99.90
33255;DHT22;19623;52.482;9.762;2022-12-20T01:17:48;6.50;99.90
33255;DHT22;19623;52.482;9.762;2022-12-20T01:20:14;6.50;99.90
33255;DHT22;19623;52.482;9.762;2022-12-20T01:22:40;6.60;99.90
33255;DHT22;19623;52.482;9.762;2022-12-20T01:25:06;6.60;99.90
33255;DHT22;19623;52.482;9.762;2022-12-20T01:27:32;6.60;99.90
33255;DHT22;19623;52.482;9.762;2022-12-20T01:29:58;6.60;99.90
33255;DHT22;19623;52.482;9.762;2022-12-20T01:32:24;6.60;99.90
33255;DHT22;19623;52.482;9.762;2022-12-20T01:34:50;6.60;99.90
33255;DHT22;19623;52.482;9.762;2022-12-20T01:37:16;6.70;99.90
33255;DHT22;19623;52.482;9.762;2022-12-20T01:39:41;6.70;99.90
33255;DHT22;19623;52.482;9.762;2022-12-20T01:42:13;6.70;99.90
33255;DHT22;19623;52.482;9.762;2022-12-20T01:47:09;6.70;99.90
33255;DHT22;19623;52.482;9.762;2022-12-20T01:49:41;6.80;99.90
33255;DHT22;19623;52.482;9.762;2022-12-20T01:52:13;6.80;99.90
33255;DHT22;19623;52.482;9.762;2022-12-20T01:54:52;6.90;99.90
33255;DHT22;19623;52.482;9.762;2022-12-20T01:57:43;6.90;99.90
33255;DHT22;19623;52.482;9.762;2022-12-20T02:00:10;6.90;99.90
33255;DHT22;19623;52.482;9.762;2022-12-20T02:02:36;6.90;99.90
33255;DHT22;19623;52.482;9.762;2022-12-20T02:05:03;6.90;99.90
33255;DHT22;19623;52.482;9.762;2022-12-20T02:07:32;6.90;99.90
33255;DHT22;19623;52.482;9.762;2022-12-20T02:10:00;7.00;99.90
33255;DHT22;19623;52.482;9.762;2022-12-20T02:12:32;6.90;99.90
33255;DHT22;19623;52.482;9.762;2022-12-20T02:25:45;7.20;99.90
33255;DHT22;19623;52.482;9.762;2022-12-20T02:31:04;7.20;99.90
33255;DHT22;19623;52.482;9.762;2022-12-20T02:33:32;7.30;99.90
33255;DHT22;19623;52.482;9.762;2022-12-20T02:35:57;7.40;99.90
33255;DHT22;19623;52.482;9.762;2022-12-20T02:38:28;7.40;99.90
33255;DHT22;19623;52.482;9.762;2022-12-20T02:41:11;7.40;99.90
33255;DHT22;19623;52.482;9.762;2022-12-20T02:43:41;7.40;99.90
33255;DHT22;19623;52.482;9.762;2022-12-20T02:46:26;7.40;99.90
33255;DHT22;19623;52.482;9.762;2022-12-20T02:48:57;7.40;99.90
33255;DHT22;19623;52.482;9.762;2022-12-20T02:51:23;7.50;99.90
33255;DHT22;19623;52.482;9.762;2022-12-20T02:53:51;7.50;99.90
33255;DHT22;19623;52.482;9.762;2022-12-20T02:56:21;7.50;99.90
33255;DHT22;19623;52.482;9.762;2022-12-20T02:59:22;7.50;99.90
33255;DHT22;19623;52.482;9.762;2022-12-20T03:01:52;7.50;99.90
33255;DHT22;19623;52.482;9.762;2022-12-20T03:04:22;7.60;99.90
33255;DHT22;19623;52.482;9.762;2022-12-20T03:07:14;7.70;99.90
33255;DHT22;19623;52.482;9.762;2022-12-20T03:09:42;7.70;99.90
33255;DHT22;19623;52.482;9.762;2022-12-20T03:12:09;7.70;99.90
33255;DHT22;19623;52.482;9.762;2022-12-20T03:14:39;7.70;99.90
33255;DHT22;19623;52.482;9.762;2022-12-20T03:17:06;7.70;99.90
33255;DHT22;19623;52.482;9.762;2022-12-20T03:19:32;7.70;99.90
33255;DHT22;19623;52.482;9.762;2022-12-20T03:21:58;7.70;99.90
33255;DHT22;19623;52.482;9.762;2022-12-20T03:24:24;7.80;99.90
33255;DHT22;19623;52.482;9.762;2022-12-20T03:26:50;7.90;99.90
33255;DHT22;19623;52.482;9.762;2022-12-20T03:29:16;7.90;99.90
33255;DHT22;19623;52.482;9.762;2022-12-20T03:31:41;7.90;99.90
33255;DHT22;19623;52.482;9.762;2022-12-20T03:34:07;7.90;99.90
33255;DHT22;19623;52.482;9.762;2022-12-20T03:36:33;8.00;99.90
33255;DHT22;19623;52.482;9.762;2022-12-20T03:38:59;8.00;99.90
33255;DHT22;19623;52.482;9.762;2022-12-20T03:41:25;8.00;99.90
33255;DHT22;19623;52.482;9.762;2022-12-20T03:43:51;7.90;99.90
33255;DHT22;19623;52.482;9.762;2022-12-20T03:46:17;7.90;99.90
33255;DHT22;19623;52.482;9.762;2022-12-20T03:48:42;8.00;99.90
33255;DHT22;19623;52.482;9.762;2022-12-20T03:51:08;7.80;99.90
33255;DHT22;19623;52.482;9.762;2022-12-20T03:53:34;7.80;99.90
33255;DHT22;19623;52.482;9.762;2022-12-20T03:56:00;7.80;99.90
33255;DHT22;19623;52.482;9.762;2022-12-20T03:58:25;7.90;99.90
33255;DHT22;19623;52.482;9.762;2022-12-20T04:00:51;7.90;99.90
33255;DHT22;19623;52.482;9.762;2022-12-20T04:03:17;7.90;99.90
33255;DHT22;19623;52.482;9.762;2022-12-20T04:05:42;8.00;99.90
33255;DHT22;19623;52.482;9.762;2022-12-20T04:08:08;7.90;99.90
33255;DHT22;19623;52.482;9.762;2022-12-20T04:10:34;7.80;99.90
33255;DHT22;19623;52.482;9.762;2022-12-20T04:13:22;7.80;99.90
33255;DHT22;19623;52.482;9.762;2022-12-20T04:15:48;7.80;99.90
33255;DHT22;19623;52.482;9.762;2022-12-20T04:18:13;7.80;99.90
33255;DHT22;19623;52.482;9.762;2022-12-20T04:20:39;7.80;99.90
33255;DHT22;19623;52.482;9.762;2022-12-20T04:23:04;7.80;99.90
33255;DHT22;19623;52.482;9.762;2022-12-20T04:25:30;7.80;99.90
33255;DHT22;19623;52.482;9.762;2022-12-20T04:27:56;7.80;99.90
33255;DHT22;19623;52.482;9.762;2022-12-20T04:30:21;7.90;99.90
33255;DHT22;19623;52.482;9.762;2022-12-20T04:32:47;7.90;99.90
33255;DHT22;19623;52.482;9.762;2022-12-20T04:35:13;7.90;99.90
33255;DHT22;19623;52.482;9.762;2022-12-20T04:37:38;8.00;99.90
33255;DHT22;19623;52.482;9.762;2022-12-20T04:40:05;8.00;99.90
33255;DHT22;19623;52.482;9.762;2022-12-20T04:42:30;8.10;99.90
33255;DHT22;19623;52.482;9.762;2022-12-20T04:44:56;8.10;99.90
33255;DHT22;19623;52.482;9.762;2022-12-20T04:47:22;8.20;99.90
33255;DHT22;19623;52.482;9.762;2022-12-20T04:49:48;8.20;99.90
33255;DHT22;19623;52.482;9.762;2022-12-20T04:52:13;8.20;99.90
33255;DHT22;19623;52.482;9.762;2022-12-20T04:54:57;8.20;99.90
33255;DHT22;19623;52.482;9.762;2022-12-20T04:57:23;8.20;99.90
33255;DHT22;19623;52.482;9.762;2022-12-20T04:59:49;8.10;99.90
33255;DHT22;19623;52.482;9.762;2022-12-20T05:02:14;8.20;99.90
33255;DHT22;19623;52.482;9.762;2022-12-20T05:04:40;8.10;99.90
33255;DHT22;19623;52.482;9.762;2022-12-20T05:07:05;8.20;99.90
33255;DHT22;19623;52.482;9.762;2022-12-20T05:09:31;8.20;99.90
33255;DHT22;19623;52.482;9.762;2022-12-20T05:11:56;8.20;99.90
33255;DHT22;19623;52.482;9.762;2022-12-20T05:14:22;8.20;99.90
33255;DHT22;19623;52.482;9.762;2022-12-20T05:16:48;8.20;99.90
33255;DHT22;19623;52.482;9.762;2022-12-20T05:19:13;8.20;99.90
33255;DHT22;19623;52.482;9.762;2022-12-20T05:21:39;8.30;99.90
33255;DHT22;19623;52.482;9.762;2022-12-20T05:24:23;8.20;99.90
33255;DHT22;19623;52.482;9.762;2022-12-20T05:27:07;8.20;99.90
33255;DHT22;19623;52.482;9.762;2022-12-20T05:29:33;8.20;99.90
33255;DHT22;19623;52.482;9.762;2022-12-20T05:31:58;8.30;99.90
33255;DHT22;19623;52.482;9.762;2022-12-20T05:34:24;8.30;99.90
33255;DHT22;19623;52.482;9.762;2022-12-20T05:36:50;8.30;99.90
33255;DHT22;19623;52.482;9.762;2022-12-20T05:39:15;8.30;99.90
33255;DHT22;19623;52.482;9.762;2022-12-20T05:41:41;8.30;99.90
33255;DHT22;19623;52.482;9.762;2022-12-20T05:44:07;8.30;99.90
33255;DHT22;19623;52.482;9.762;2022-12-20T05:46:33;8.30;99.90
33255;DHT22;19623;52.482;9.762;2022-12-20T05:48:58;8.30;99.90
33255;DHT22;19623;52.482;9.762;2022-12-20T05:51:24;8.30;99.90
33255;DHT22;19623;52.482;9.762;2022-12-20T05:53:50;8.30;99.90
33255;DHT22;19623;52.482;9.762;2022-12-20T05:56:15;8.40;99.90
33255;DHT22;19623;52.482;9.762;2022-12-20T05:58:41;8.40;99.90
33255;DHT22;19623;52.482;9.762;2022-12-20T06:01:08;8.40;99.90
33255;DHT22;19623;52.482;9.762;2022-12-20T06:03:35;8.40;99.90
33255;DHT22;19623;52.482;9.762;2022-12-20T06:06:01;8.40;99.90
33255;DHT22;19623;52.482;9.762;2022-12-20T06:08:26;8.50;99.90
33255;DHT22;19623;52.482;9.762;2022-12-20T06:10:52;8.50;99.90
33255;DHT22;19623;52.482;9.762;2022-12-20T06:13:18;8.50;99.90
33255;DHT22;19623;52.482;9.762;2022-12-20T06:15:44;8.50;99.90
33255;DHT22;19623;52.482;9.762;2022-12-20T06:18:10;8.50;99.90
33255;DHT22;19623;52.482;9.762;2022-12-20T06:20:36;8.50;99.90
33255;DHT22;19623;52.482;9.762;2022-12-20T06:23:02;8.50;99.90
33255;DHT22;19623;52.482;9.762;2022-12-20T06:25:28;8.50;99.90
33255;DHT22;19623;52.482;9.762;2022-12-20T06:27:55;8.40;99.90
33255;DHT22;19623;52.482;9.762;2022-12-20T06:30:21;8.40;99.90
33255;DHT22;19623;52.482;9.762;2022-12-20T06:32:47;8.40;99.90
33255;DHT22;19623;52.482;9.762;2022-12-20T06:35:14;8.50;99.90
33255;DHT22;19623;52.482;9.762;2022-12-20T06:37:40;8.50;99.90
33255;DHT22;19623;52.482;9.762;2022-12-20T06:40:08;8.50;99.90
33255;DHT22;19623;52.482;9.762;2022-12-20T06:42:34;8.50;99.90
33255;DHT22;19623;52.482;9.762;2022-12-20T06:44:59;8.50;99.90
33255;DHT22;19623;52.482;9.762;2022-12-20T06:47:25;8.50;99.90
33255;DHT22;19623;52.482;9.762;2022-12-20T06:49:51;8.50;99.90
33255;DHT22;19623;52.482;9.762;2022-12-20T06:52:16;8.50;99.90
33255;DHT22;19623;52.482;9.762;2022-12-20T06:54:42;8.50;99.90
33255;DHT22;19623;52.482;9.762;2022-12-20T06:57:08;8.40;99.90
33255;DHT22;19623;52.482;9.762;2022-12-20T06:59:33;8.40;99.90
33255;DHT22;19623;52.482;9.762;2022-12-20T07:01:59;8.30;99.90
33255;DHT22;19623;52.482;9.762;2022-12-20T07:04:26;8.40;99.90
33255;DHT22;19623;52.482;9.762;2022-12-20T07:06:51;8.40;99.90
33255;DHT22;19623;52.482;9.762;2022-12-20T07:09:17;8.40;99.90
33255;DHT22;19623;52.482;9.762;2022-12-20T07:11:43;8.40;99.90
33255;DHT22;19623;52.482;9.762;2022-12-20T07:14:09;8.40;99.90
33255;DHT22;19623;52.482;9.762;2022-12-20T07:16:35;8.40;99.90
33255;DHT22;19623;52.482;9.762;2022-12-20T07:19:01;8.50;99.90
33255;DHT22;19623;52.482;9.762;2022-12-20T07:21:26;8.40;99.90
33255;DHT22;19623;52.482;9.762;2022-12-20T07:23:54;8.50;99.90
33255;DHT22;19623;52.482;9.762;2022-12-20T07:26:20;8.50;99.90
33255;DHT22;19623;52.482;9.762;2022-12-20T07:28:49;8.50;99.90
33255;DHT22;19623;52.482;9.762;2022-12-20T07:31:15;8.50;99.90
33255;DHT22;19623;52.482;9.762;2022-12-20T07:33:40;8.50;99.90
33255;DHT22;19623;52.482;9.762;2022-12-20T07:36:10;8.50;99.90
33255;DHT22;19623;52.482;9.762;2022-12-20T07:38:39;8.60;99.90
33255;DHT22;19623;52.482;9.762;2022-12-20T07:41:13;8.60;99.90
33255;DHT22;19623;52.482;9.762;2022-12-20T07:43:39;8.70;99.90
33255;DHT22;19623;52.482;9.762;2022-12-20T07:46:05;8.70;99.90
33255;DHT22;19623;52.482;9.762;2022-12-20T07:48:32;8.70;99.90
33255;DHT22;19623;52.482;9.762;2022-12-20T07:51:07;8.70;99.90
33255;DHT22;19623;52.482;9.762;2022-12-20T07:53:38;8.80;99.90
33255;DHT22;19623;52.482;9.762;2022-12-20T07:56:05;8.80;99.90
33255;DHT22;19623;52.482;9.762;2022-12-20T07:58:32;8.90;99.90
33255;DHT22;19623;52.482;9.762;2022-12-20T08:01:00;8.90;99.90
33255;DHT22;19623;52.482;9.762;2022-12-20T08:03:35;9.00;99.90
33255;DHT22;19623;52.482;9.762;2022-12-20T08:06:03;8.90;99.90
33255;DHT22;19623;52.482;9.762;2022-12-20T08:08:39;8.90;99.90
33255;DHT22;19623;52.482;9.762;2022-12-20T08:11:08;8.90;99.90
33255;DHT22;19623;52.482;9.762;2022-12-20T08:13:34;8.90;99.90
33255;DHT22;19623;52.482;9.762;2022-12-20T08:16:00;8.80;99.90
33255;DHT22;19623;52.482;9.762;2022-12-20T08:18:26;8.90;99.90
33255;DHT22;19623;52.482;9.762;2022-12-20T08:20:51;8.90;99.90
33255;DHT22;19623;52.482;9.762;2022-12-20T08:23:17;9.00;99.90
33255;DHT22;19623;52.482;9.762;2022-12-20T08:25:44;9.00;99.90
33255;DHT22;19623;52.482;9.762;2022-12-20T08:28:09;9.10;99.90
33255;DHT22;19623;52.482;9.762;2022-12-20T08:30:35;9.10;99.90
33255;DHT22;19623;52.482;9.762;2022-12-20T08:33:01;9.10;99.90
33255;DHT22;19623;52.482;9.762;2022-12-20T08:35:27;9.10;99.90
33255;DHT22;19623;52.482;9.762;2022-12-20T08:37:53;9.10;99.90
33255;DHT22;19623;52.482;9.762;2022-12-20T08:40:19;9.10;99.90
33255;DHT22;19623;52.482;9.762;2022-12-20T08:42:45;9.20;99.90
33255;DHT22;19623;52.482;9.762;2022-12-20T08:45:11;9.20;99.90
33255;DHT22;19623;52.482;9.762;2022-12-20T08:47:37;9.30;99.90
33255;DHT22;19623;52.482;9.762;2022-12-20T08:50:03;9.30;99.90
33255;DHT22;19623;52.482;9.762;2022-12-20T08:52:28;9.40;99.90
33255;DHT22;19623;52.482;9.762;2022-12-20T08:54:54;9.40;99.90
33255;DHT22;19623;52.482;9.762;2022-12-20T08:57:20;9.50;99.90
33255;DHT22;19623;52.482;9.762;2022-12-20T08:59:46;9.50;99.90
33255;DHT22;19623;52.482;9.762;2022-12-20T09:02:11;9.50;99.90
33255;DHT22;19623;52.482;9.762;2022-12-20T09:04:37;9.50;99.90
33255;DHT22;19623;52.482;9.762;2022-12-20T09:07:03;9.50;99.90
33255;DHT22;19623;52.482;9.762;2022-12-20T09:09:29;9.50;99.90
33255;DHT22;19623;52.482;9.762;2022-12-20T09:11:54;9.60;99.90
33255;DHT22;19623;52.482;9.762;2022-12-20T09:14:20;9.60;99.90
33255;DHT22;19623;52.482;9.762;2022-12-20T09:16:46;9.60;99.90
33255;DHT22;19623;52.482;9.762;2022-12-20T09:19:13;9.60;99.90
33255;DHT22;19623;52.482;9.762;2022-12-20T09:21:39;9.60;99.90
33255;DHT22;19623;52.482;9.762;2022-12-20T09:24:05;9.70;99.90
33255;DHT22;19623;52.482;9.762;2022-12-20T09:26:31;9.70;99.90
33255;DHT22;19623;52.482;9.762;2022-12-20T09:28:57;9.80;99.90
33255;DHT22;19623;52.482;9.762;2022-12-20T09:31:24;9.80;99.90
33255;DHT22;19623;52.482;9.762;2022-12-20T09:33:57;9.90;99.90
33255;DHT22;19623;52.482;9.762;2022-12-20T09:36:24;9.90;99.90
33255;DHT22;19623;52.482;9.762;2022-12-20T09:38:50;10.00;99.90
33255;DHT22;19623;52.482;9.762;2022-12-20T09:41:38;10.10;99.90
33255;DHT22;19623;52.482;9.762;2022-12-20T09:44:13;10.10;99.90
33255;DHT22;19623;52.482;9.762;2022-12-20T09:46:41;10.10;99.90
33255;DHT22;19623;52.482;9.762;2022-12-20T09:49:14;10.10;99.90
33255;DHT22;19623;52.482;9.762;2022-12-20T09:52:13;10.20;99.90
33255;DHT22;19623;52.482;9.762;2022-12-20T09:59:58;10.20;99.90
33255;DHT22;19623;52.482;9.762;2022-12-20T10:02:25;10.20;99.90
33255;DHT22;19623;52.482;9.762;2022-12-20T10:04:52;10.30;99.90
33255;DHT22;19623;52.482;9.762;2022-12-20T10:13:01;10.40;99.90
33255;DHT22;19623;52.482;9.762;2022-12-20T10:15:35;10.30;99.90
33255;DHT22;19623;52.482;9.762;2022-12-20T10:18:12;10.50;99.90
33255;DHT22;19623;52.482;9.762;2022-12-20T10:23:29;10.40;99.90
33255;DHT22;19623;52.482;9.762;2022-12-20T10:25:57;10.40;99.90
33255;DHT22;19623;52.482;9.762;2022-12-20T10:28:41;10.50;99.90
33255;DHT22;19623;52.482;9.762;2022-12-20T10:31:12;10.60;99.90
33255;DHT22;19623;52.482;9.762;2022-12-20T10:33:39;10.60;99.90
33255;DHT22;19623;52.482;9.762;2022-12-20T10:36:27;10.60;99.90
33255;DHT22;19623;52.482;9.762;2022-12-20T10:38:58;10.60;99.90
33255;DHT22;19623;52.482;9.762;2022-12-20T10:41:29;10.60;99.90
33255;DHT22;19623;52.482;9.762;2022-12-20T10:46:43;10.60;99.90
33255;DHT22;19623;52.482;9.762;2022-12-20T10:49:34;10.60;99.90
33255;DHT22;19623;52.482;9.762;2022-12-20T10:54:33;10.70;99.90
33255;DHT22;19623;52.482;9.762;2022-12-20T10:59:42;10.70;99.90
33255;DHT22;19623;52.482;9.762;2022-12-20T11:02:30;10.80;99.90
33255;DHT22;19623;52.482;9.762;2022-12-20T11:05:22;10.80;99.90
33255;DHT22;19623;52.482;9.762;2022-12-20T11:08:06;10.80;99.90
33255;DHT22;19623;52.482;9.762;2022-12-20T11:10:32;10.80;99.90
33255;DHT22;19623;52.482;9.762;2022-12-20T11:13:00;10.80;99.90
33255;DHT22;19623;52.482;9.762;2022-12-20T11:15:28;10.90;99.90
33255;DHT22;19623;52.482;9.762;2022-12-20T11:18:03;10.90;99.90
33255;DHT22;19623;52.482;9.762;2022-12-20T11:31:27;11.30;99.90
33255;DHT22;19623;52.482;9.762;2022-12-20T11:37:19;11.60;99.90
33255;DHT22;19623;52.482;9.762;2022-12-20T11:40:49;11.70;99.90
33255;DHT22;19623;52.482;9.762;2022-12-20T11:43:35;11.80;99.90
33255;DHT22;19623;52.482;9.762;2022-12-20T11:46:32;11.80;99.90
33255;DHT22;19623;52.482;9.762;2022-12-20T11:54:30;11.80;99.90
33255;DHT22;19623;52.482;9.762;2022-12-20T11:57:05;11.70;99.90
33255;DHT22;19623;52.482;9.762;2022-12-20T11:59:53;11.60;99.90
33255;DHT22;19623;52.482;9.762;2022-12-20T12:05:43;11.60;99.90
33255;DHT22;19623;52.482;9.762;2022-12-20T12:08:30;11.60;99.90
33255;DHT22;19623;52.482;9.762;2022-12-20T12:11:05;11.60;99.90
33255;DHT22;19623;52.482;9.762;2022-12-20T12:13:37;11.60;99.90
33255;DHT22;19623;52.482;9.762;2022-12-20T12:16:08;11.60;99.90
33255;DHT22;19623;52.482;9.762;2022-12-20T12:18:36;11.50;99.90
33255;DHT22;19623;52.482;9.762;2022-12-20T12:28:54;11.40;99.90
33255;DHT22;19623;52.482;9.762;2022-12-20T12:31:43;11.40;99.90
33255;DHT22;19623;52.482;9.762;2022-12-20T12:34:22;11.50;99.90
33255;DHT22;19623;52.482;9.762;2022-12-20T12:43:07;11.40;99.90
33255;DHT22;19623;52.482;9.762;2022-12-20T12:45:42;11.30;99.90
33255;DHT22;19623;52.482;9.762;2022-12-20T12:48:34;11.30;99.90
33255;DHT22;19623;52.482;9.762;2022-12-20T12:51:02;11.30;99.90
33255;DHT22;19623;52.482;9.762;2022-12-20T13:04:24;11.30;99.90
33255;DHT22;19623;52.482;9.762;2022-12-20T13:06:56;11.30;99.90
33255;DHT22;19623;52.482;9.762;2022-12-20T13:11:54;11.20;99.90
33255;DHT22;19623;52.482;9.762;2022-12-20T13:16:47;11.20;99.90
33255;DHT22;19623;52.482;9.762;2022-12-20T13:19:19;11.20;99.90
33255;DHT22;19623;52.482;9.762;2022-12-20T13:22:19;11.20;99.90
33255;DHT22;19623;52.482;9.762;2022-12-20T13:24:57;11.30;99.90
33255;DHT22;19623;52.482;9.762;2022-12-20T13:27:27;11.20;99.90
33255;DHT22;19623;52.482;9.762;2022-12-20T13:37:55;11.20;99.90
33255;DHT22;19623;52.482;9.762;2022-12-20T13:45:53;11.30;99.90
33255;DHT22;19623;52.482;9.762;2022-12-20T13:48:35;11.30;99.90
33255;DHT22;19623;52.482;9.762;2022-12-20T13:51:04;11.20;99.90
33255;DHT22;19623;52.482;9.762;2022-12-20T13:53:30;11.20;99.90
33255;DHT22;19623;52.482;9.762;2022-12-20T13:55:56;11.20;99.90
33255;DHT22;19623;52.482;9.762;2022-12-20T13:58:27;11.10;99.90
33255;DHT22;19623;52.482;9.762;2022-12-20T14:01:03;11.10;99.90
33255;DHT22;19623;52.482;9.762;2022-12-20T14:03:33;11.00;99.90
33255;DHT22;19623;52.482;9.762;2022-12-20T14:06:09;11.10;99.90
33255;DHT22;19623;52.482;9.762;2022-12-20T14:08:39;11.10;99.90
33255;DHT22;19623;52.482;9.762;2022-12-20T14:11:14;11.10;99.90
33255;DHT22;19623;52.482;9.762;2022-12-20T14:13:40;11.00;99.90
33255;DHT22;19623;52.482;9.762;2022-12-20T14:16:16;11.00;99.90
33255;DHT22;19623;52.482;9.762;2022-12-20T14:21:23;11.00;99.90
33255;DHT22;19623;52.482;9.762;2022-12-20T14:23:51;11.00;99.90
33255;DHT22;19623;52.482;9.762;2022-12-20T14:26:21;11.10;99.90
33255;DHT22;19623;52.482;9.762;2022-12-20T14:28:50;11.10;99.90
33255;DHT22;19623;52.482;9.762;2022-12-20T14:36:31;11.00;99.90
33255;DHT22;19623;52.482;9.762;2022-12-20T14:38:58;11.00;99.90
33255;DHT22;19623;52.482;9.762;2022-12-20T14:41:35;11.00;99.90
33255;DHT22;19623;52.482;9.762;2022-12-20T14:44:12;11.00;99.90
33255;DHT22;19623;52.482;9.762;2022-12-20T14:46:38;11.00;99.90
33255;DHT22;19623;52.482;9.762;2022-12-20T14:49:16;11.00;99.90
33255;DHT22;19623;52.482;9.762;2022-12-20T14:51:43;10.90;99.90
33255;DHT22;19623;52.482;9.762;2022-12-20T14:54:17;10.80;99.90
33255;DHT22;19623;52.482;9.762;2022-12-20T14:56:46;10.80;99.90
33255;DHT22;19623;52.482;9.762;2022-12-20T14:59:16;10.80;99.90
33255;DHT22;19623;52.482;9.762;2022-12-20T15:01:49;10.80;99.90
33255;DHT22;19623;52.482;9.762;2022-12-20T15:04:33;10.70;99.90
33255;DHT22;19623;52.482;9.762;2022-12-20T15:07:00;10.70;99.90
33255;DHT22;19623;52.482;9.762;2022-12-20T15:09:26;10.70;99.90
33255;DHT22;19623;52.482;9.762;2022-12-20T15:11:53;10.60;99.90
33255;DHT22;19623;52.482;9.762;2022-12-20T15:14:36;10.60;99.90
33255;DHT22;19623;52.482;9.762;2022-12-20T15:17:09;10.70;99.90
33255;DHT22;19623;52.482;9.762;2022-12-20T15:19:35;10.70;99.90
33255;DHT22;19623;52.482;9.762;2022-12-20T15:22:00;10.60;99.90
33255;DHT22;19623;52.482;9.762;2022-12-20T15:24:27;10.60;99.90
33255;DHT22;19623;52.482;9.762;2022-12-20T15:26:53;10.60;99.90
33255;DHT22;19623;52.482;9.762;2022-12-20T15:29:25;10.60;99.90
33255;DHT22;19623;52.482;9.762;2022-12-20T15:31:57;10.60;99.90
33255;DHT22;19623;52.482;9.762;2022-12-20T15:36:56;10.60;99.90
33255;DHT22;19623;52.482;9.762;2022-12-20T15:39:25;10.50;99.90
33255;DHT22;19623;52.482;9.762;2022-12-20T15:41:51;10.60;99.90
33255;DHT22;19623;52.482;9.762;2022-12-20T15:44:23;10.60;99.90
33255;DHT22;19623;52.482;9.762;2022-12-20T15:46:49;10.60;99.90
33255;DHT22;19623;52.482;9.762;2022-12-20T15:49:24;10.70;99.90
33255;DHT22;19623;52.482;9.762;2022-12-20T15:51:51;10.70;99.90
33255;DHT22;19623;52.482;9.762;2022-12-20T15:56:53;10.70;99.90
33255;DHT22;19623;52.482;9.762;2022-12-20T15:59:18;10.70;99.90
33255;DHT22;19623;52.482;9.762;2022-12-20T16:01:44;10.70;99.90
33255;DHT22;19623;52.482;9.762;2022-12-20T16:04:21;10.70;99.90
33255;DHT22;19623;52.482;9.762;2022-12-20T16:06:48;10.70;99.90
33255;DHT22;19623;52.482;9.762;2022-12-20T16:09:15;10.60;99.90
33255;DHT22;19623;52.482;9.762;2022-12-20T16:11:41;10.60;99.90
33255;DHT22;19623;52.482;9.762;2022-12-20T16:14:13;10.70;99.90
33255;DHT22;19623;52.482;9.762;2022-12-20T16:16:40;10.60;99.90
33255;DHT22;19623;52.482;9.762;2022-12-20T16:19:05;10.60;99.90
33255;DHT22;19623;52.482;9.762;2022-12-20T16:21:40;10.60;99.90
33255;DHT22;19623;52.482;9.762;2022-12-20T16:24:12;10.60;99.90
33255;DHT22;19623;52.482;9.762;2022-12-20T16:26:38;10.60;99.90
33255;DHT22;19623;52.482;9.762;2022-12-20T16:29:04;10.60;99.90
33255;DHT22;19623;52.482;9.762;2022-12-20T16:31:32;10.60;99.90
33255;DHT22;19623;52.482;9.762;2022-12-20T16:34:00;10.60;99.90
33255;DHT22;19623;52.482;9.762;2022-12-20T16:36:27;10.50;99.90
33255;DHT22;19623;52.482;9.762;2022-12-20T16:38:54;10.60;99.90
33255;DHT22;19623;52.482;9.762;2022-12-20T16:43:47;10.60;99.90
33255;DHT22;19623;52.482;9.762;2022-12-20T16:46:18;10.70;99.90
33255;DHT22;19623;52.482;9.762;2022-12-20T16:48:44;10.60;99.90
33255;DHT22;19623;52.482;9.762;2022-12-20T16:51:25;10.60;99.90
33255;DHT22;19623;52.482;9.762;2022-12-20T16:54:01;10.60;99.90
33255;DHT22;19623;52.482;9.762;2022-12-20T16:56:27;10.60;99.90
33255;DHT22;19623;52.482;9.762;2022-12-20T16:58:53;10.50;99.90
33255;DHT22;19623;52.482;9.762;2022-12-20T17:01:21;10.40;99.90
33255;DHT22;19623;52.482;9.762;2022-12-20T17:03:48;10.40;99.90
33255;DHT22;19623;52.482;9.762;2022-12-20T17:06:15;10.40;99.90
33255;DHT22;19623;52.482;9.762;2022-12-20T17:08:42;10.30;99.90
33255;DHT22;19623;52.482;9.762;2022-12-20T17:11:20;10.30;99.90
33255;DHT22;19623;52.482;9.762;2022-12-20T17:13:48;10.30;99.90
33255;DHT22;19623;52.482;9.762;2022-12-20T17:16:16;10.20;99.90
33255;DHT22;19623;52.482;9.762;2022-12-20T17:18:46;10.30;99.90
33255;DHT22;19623;52.482;9.762;2022-12-20T17:23:45;10.30;99.90
33255;DHT22;19623;52.482;9.762;2022-12-20T17:26:22;10.30;99.90
33255;DHT22;19623;52.482;9.762;2022-12-20T17:28:50;10.40;99.90
33255;DHT22;19623;52.482;9.762;2022-12-20T17:31:34;10.40;99.90
33255;DHT22;19623;52.482;9.762;2022-12-20T17:34:15;10.40;99.90
33255;DHT22;19623;52.482;9.762;2022-12-20T17:36:42;10.50;99.90
33255;DHT22;19623;52.482;9.762;2022-12-20T17:39:08;10.50;99.90
33255;DHT22;19623;52.482;9.762;2022-12-20T17:41:34;10.50;99.90
33255;DHT22;19623;52.482;9.762;2022-12-20T17:44:00;10.40;99.90
33255;DHT22;19623;52.482;9.762;2022-12-20T17:46:27;10.40;99.90
33255;DHT22;19623;52.482;9.762;2022-12-20T17:48:54;10.40;99.90
33255;DHT22;19623;52.482;9.762;2022-12-20T17:51:27;10.40;99.90
33255;DHT22;19623;52.482;9.762;2022-12-20T17:53:58;10.40;99.90
33255;DHT22;19623;52.482;9.762;2022-12-20T17:56:32;10.50;99.90